createdAt,value
2018-08-06T00:00:30.468Z,0
2018-08-06T00:01:11.039Z,0
2018-08-06T00:01:51.606Z,0
2018-08-06T00:02:32.241Z,0
2018-08-06T00:03:12.815Z,0
2018-08-06T00:03:53.383Z,0
2018-08-06T00:04:33.933Z,0
2018-08-06T00:05:14.496Z,0
2018-08-06T00:05:55.089Z,0
2018-08-06T00:06:35.666Z,0
2018-08-06T00:07:16.233Z,0
2018-08-06T00:07:56.992Z,0
2018-08-06T00:08:37.394Z,0
2018-08-06T00:09:17.967Z,0
2018-08-06T00:09:58.538Z,0
2018-08-06T00:10:39.101Z,0
2018-08-06T00:11:19.659Z,0
2018-08-06T00:12:00.227Z,0
2018-08-06T00:12:40.788Z,0
2018-08-06T00:13:21.342Z,0
2018-08-06T00:14:01.910Z,0
2018-08-06T00:14:42.484Z,0
2018-08-06T00:15:23.063Z,0
2018-08-06T00:16:03.642Z,0
2018-08-06T00:16:44.212Z,0
2018-08-06T00:17:24.820Z,0
2018-08-06T00:18:05.378Z,0
2018-08-06T00:18:45.951Z,0
2018-08-06T00:19:26.521Z,0
2018-08-06T00:20:07.101Z,0
2018-08-06T00:20:47.683Z,0
2018-08-06T00:21:28.249Z,0
2018-08-06T00:22:08.800Z,0
2018-08-06T00:22:49.343Z,0
2018-08-06T00:23:29.919Z,0
2018-08-06T00:24:10.499Z,0
2018-08-06T00:24:51.059Z,0
2018-08-06T00:25:31.641Z,0
2018-08-06T00:26:12.207Z,0
2018-08-06T00:26:52.779Z,0
2018-08-06T00:27:33.356Z,0
2018-08-06T00:28:13.929Z,0
2018-08-06T00:28:54.492Z,0
2018-08-06T00:29:35.092Z,0
2018-08-06T00:30:15.618Z,0
2018-08-06T00:30:56.190Z,0
2018-08-06T00:31:36.754Z,0
2018-08-06T00:32:17.319Z,0
2018-08-06T00:32:57.889Z,0
2018-08-06T00:33:38.453Z,0
2018-08-06T00:34:19.135Z,0
2018-08-06T00:34:59.708Z,0
2018-08-06T00:35:40.283Z,0
2018-08-06T00:36:20.848Z,0
2018-08-06T00:37:01.409Z,0
2018-08-06T00:37:41.976Z,0
2018-08-06T00:38:22.549Z,0
2018-08-06T00:39:03.120Z,0
2018-08-06T00:39:43.755Z,0
2018-08-06T00:40:24.311Z,0
2018-08-06T00:41:04.882Z,0
2018-08-06T00:41:45.454Z,0
2018-08-06T00:42:26.023Z,0
2018-08-06T00:43:06.593Z,0
2018-08-06T00:43:47.167Z,0
2018-08-06T00:44:27.741Z,0
2018-08-06T00:45:08.363Z,0
2018-08-06T00:45:48.872Z,0
2018-08-06T00:46:29.426Z,0
2018-08-06T00:47:09.994Z,0
2018-08-06T00:47:50.549Z,0
2018-08-06T00:48:31.120Z,0
2018-08-06T00:49:11.693Z,0
2018-08-06T00:49:52.264Z,0
2018-08-06T00:50:32.829Z,0
2018-08-06T00:51:13.394Z,0
2018-08-06T00:51:53.963Z,0
2018-08-06T00:52:34.544Z,0
2018-08-06T00:53:15.132Z,0
2018-08-06T00:53:55.700Z,0
2018-08-06T00:54:36.325Z,0
2018-08-06T00:55:16.903Z,0
2018-08-06T00:55:57.466Z,0
2018-08-06T00:56:38.035Z,0
2018-08-06T00:57:18.607Z,0
2018-08-06T00:57:59.184Z,0
2018-08-06T00:58:39.828Z,0
2018-08-06T00:59:20.397Z,0
2018-08-06T01:00:00.969Z,0
2018-08-06T01:00:41.539Z,0
2018-08-06T01:01:22.127Z,0
2018-08-06T01:02:02.749Z,0
2018-08-06T01:02:43.302Z,0
2018-08-06T01:03:23.980Z,0
2018-08-06T01:04:04.545Z,0
2018-08-06T01:04:45.100Z,0
2018-08-06T01:05:25.670Z,0
2018-08-06T01:06:06.245Z,0
2018-08-06T01:06:46.808Z,0
2018-08-06T01:07:27.367Z,0
2018-08-06T01:08:07.935Z,0
2018-08-06T01:08:48.527Z,0
2018-08-06T01:09:29.117Z,0
2018-08-06T01:10:09.675Z,0
2018-08-06T01:10:50.242Z,0
2018-08-06T01:11:30.800Z,0
2018-08-06T01:12:11.373Z,0
2018-08-06T01:12:51.941Z,0
2018-08-06T01:13:32.503Z,0
2018-08-06T01:14:13.078Z,0
2018-08-06T01:14:53.690Z,0
2018-08-06T01:15:34.258Z,0
2018-08-06T01:16:14.831Z,0
2018-08-06T01:16:55.391Z,0
2018-08-06T01:17:35.954Z,0
2018-08-06T01:18:16.516Z,0
2018-08-06T01:18:57.114Z,0
2018-08-06T01:19:37.684Z,0
2018-08-06T01:20:18.266Z,0
2018-08-06T01:20:58.837Z,0
2018-08-06T01:21:39.413Z,0
2018-08-06T01:22:19.983Z,0
2018-08-06T01:23:00.547Z,0
2018-08-06T01:23:41.116Z,0
2018-08-06T01:24:21.683Z,0
2018-08-06T01:25:02.249Z,0
2018-08-06T01:25:42.822Z,0
2018-08-06T01:26:23.389Z,0
2018-08-06T01:27:03.982Z,0
2018-08-06T01:27:44.536Z,0
2018-08-06T01:28:25.100Z,0
2018-08-06T01:29:05.664Z,0
2018-08-06T01:29:46.237Z,0
2018-08-06T01:30:26.994Z,0
2018-08-06T01:31:07.559Z,0
2018-08-06T01:31:48.157Z,0
2018-08-06T01:32:28.738Z,0
2018-08-06T01:33:09.303Z,0
2018-08-06T01:33:49.874Z,0
2018-08-06T01:34:30.437Z,0
2018-08-06T01:35:11.082Z,0
2018-08-06T01:35:52.161Z,0
2018-08-06T01:36:32.732Z,0
2018-08-06T01:37:13.312Z,0
2018-08-06T01:37:53.878Z,0
2018-08-06T01:38:34.448Z,0
2018-08-06T01:39:15.019Z,0
2018-08-06T01:39:55.610Z,0
2018-08-06T01:40:36.163Z,0
2018-08-06T01:41:16.717Z,0
2018-08-06T01:41:57.288Z,0
2018-08-06T01:42:37.856Z,0
2018-08-06T01:43:18.427Z,0
2018-08-06T01:43:58.987Z,0
2018-08-06T01:44:39.548Z,0
2018-08-06T01:45:20.118Z,0
2018-08-06T01:46:00.709Z,0
2018-08-06T01:46:41.303Z,0
2018-08-06T01:47:21.872Z,0
2018-08-06T01:48:02.438Z,0
2018-08-06T01:48:43.010Z,0
2018-08-06T01:49:23.587Z,0
2018-08-06T01:50:04.181Z,0
2018-08-06T01:50:44.741Z,0
2018-08-06T01:51:25.326Z,0
2018-08-06T01:52:05.897Z,0
2018-08-06T01:52:46.470Z,0
2018-08-06T01:53:27.037Z,0
2018-08-06T01:54:07.610Z,0
2018-08-06T01:54:48.201Z,0
2018-08-06T01:55:28.758Z,0
2018-08-06T01:56:09.378Z,0
2018-08-06T01:56:49.945Z,0
2018-08-06T01:57:30.516Z,0
2018-08-06T01:58:11.079Z,0
2018-08-06T01:58:51.648Z,0
2018-08-06T01:59:32.237Z,0
2018-08-06T02:00:12.807Z,0
2018-08-06T02:00:53.374Z,0
2018-08-06T02:01:33.977Z,0
2018-08-06T02:02:14.519Z,0
2018-08-06T02:02:55.090Z,0
2018-08-06T02:03:35.658Z,0
2018-08-06T02:04:16.246Z,0
2018-08-06T02:04:56.904Z,0
2018-08-06T02:05:37.474Z,0
2018-08-06T02:06:18.047Z,0
2018-08-06T02:06:58.620Z,0
2018-08-06T02:07:39.193Z,0
2018-08-06T02:08:19.765Z,0
2018-08-06T02:09:00.340Z,0
2018-08-06T02:09:40.912Z,0
2018-08-06T02:10:21.479Z,0
2018-08-06T02:11:02.029Z,0
2018-08-06T02:11:42.623Z,0
2018-08-06T02:12:23.414Z,0
2018-08-06T02:13:03.956Z,0
2018-08-06T02:13:44.539Z,0
2018-08-06T02:14:25.119Z,0
2018-08-06T02:15:05.681Z,0
2018-08-06T02:15:46.236Z,0
2018-08-06T02:16:26.812Z,0
2018-08-06T02:17:07.357Z,0
2018-08-06T02:17:48.069Z,0
2018-08-06T02:18:28.656Z,0
2018-08-06T02:19:09.242Z,0
2018-08-06T02:19:49.811Z,0
2018-08-06T02:20:30.387Z,0
2018-08-06T02:21:10.942Z,0
2018-08-06T02:21:51.533Z,0
2018-08-06T02:22:32.092Z,0
2018-08-06T02:23:12.649Z,0
2018-08-06T02:23:53.232Z,0
2018-08-06T02:24:33.793Z,0
2018-08-06T02:25:14.368Z,0
2018-08-06T02:25:55.151Z,0
2018-08-06T02:26:35.530Z,0
2018-08-06T02:27:16.127Z,0
2018-08-06T02:27:56.755Z,0
2018-08-06T02:28:37.312Z,0
2018-08-06T02:29:17.872Z,0
2018-08-06T02:29:58.437Z,0
2018-08-06T02:30:39.001Z,0
2018-08-06T02:31:19.587Z,0
2018-08-06T02:32:00.180Z,0
2018-08-06T02:32:40.750Z,0
2018-08-06T02:33:21.307Z,0
2018-08-06T02:34:01.887Z,0
2018-08-06T02:34:42.443Z,0
2018-08-06T02:35:23.004Z,0
2018-08-06T02:36:03.568Z,0
2018-08-06T02:36:44.141Z,0
2018-08-06T02:37:24.699Z,0
2018-08-06T02:38:05.274Z,0
2018-08-06T02:38:45.862Z,0
2018-08-06T02:39:26.427Z,0
2018-08-06T02:40:06.996Z,0
2018-08-06T02:40:47.577Z,0
2018-08-06T02:41:28.258Z,0
2018-08-06T02:42:08.736Z,0
2018-08-06T02:42:49.303Z,0
2018-08-06T02:43:29.927Z,0
2018-08-06T02:44:10.646Z,0
2018-08-06T02:44:51.218Z,0
2018-08-06T02:45:31.782Z,0
2018-08-06T02:46:12.341Z,0
2018-08-06T02:46:52.941Z,0
2018-08-06T02:47:33.489Z,0
2018-08-06T02:48:14.074Z,0
2018-08-06T02:48:54.646Z,0
2018-08-06T02:49:35.196Z,0
2018-08-06T02:50:15.755Z,0
2018-08-06T02:50:56.327Z,0
2018-08-06T02:51:37.110Z,0
2018-08-06T02:52:17.697Z,0
2018-08-06T02:52:58.264Z,0
2018-08-06T02:53:38.825Z,0
2018-08-06T02:54:19.402Z,0
2018-08-06T02:54:59.974Z,0
2018-08-06T02:55:40.545Z,0
2018-08-06T02:56:21.115Z,0
2018-08-06T02:57:01.748Z,0
2018-08-06T02:57:42.314Z,0
2018-08-06T02:58:22.868Z,0
2018-08-06T02:59:03.474Z,0
2018-08-06T02:59:44.046Z,4
2018-08-06T03:00:24.612Z,4
2018-08-06T03:01:05.156Z,4
2018-08-06T03:01:45.727Z,0
2018-08-06T03:02:26.285Z,0
2018-08-06T03:03:06.864Z,4
2018-08-06T03:03:47.437Z,4
2018-08-06T03:04:28.024Z,4
2018-08-06T03:05:08.584Z,4
2018-08-06T03:05:49.157Z,4
2018-08-06T03:06:29.732Z,4
2018-08-06T03:07:10.426Z,4
2018-08-06T03:07:51.003Z,8
2018-08-06T03:08:32.448Z,4
2018-08-06T03:09:13.006Z,8
2018-08-06T03:09:53.667Z,8
2018-08-06T03:10:34.177Z,8
2018-08-06T03:11:14.739Z,8
2018-08-06T03:11:55.302Z,12
2018-08-06T03:12:35.893Z,12
2018-08-06T03:13:16.565Z,12
2018-08-06T03:13:57.144Z,16
2018-08-06T03:14:37.721Z,16
2018-08-06T03:15:18.283Z,16
2018-08-06T03:15:58.845Z,16
2018-08-06T03:16:39.410Z,20
2018-08-06T03:17:19.962Z,20
2018-08-06T03:18:00.532Z,24
2018-08-06T03:18:41.125Z,28
2018-08-06T03:19:21.692Z,28
2018-08-06T03:20:02.278Z,28
2018-08-06T03:20:42.904Z,32
2018-08-06T03:21:23.625Z,36
2018-08-06T03:22:04.187Z,36
2018-08-06T03:22:44.757Z,40
2018-08-06T03:23:25.316Z,44
2018-08-06T03:24:05.886Z,48
2018-08-06T03:24:46.518Z,48
2018-08-06T03:25:27.065Z,52
2018-08-06T03:26:07.631Z,60
2018-08-06T03:26:48.201Z,64
2018-08-06T03:27:28.843Z,68
2018-08-06T03:28:09.434Z,72
2018-08-06T03:28:50.000Z,76
2018-08-06T03:29:30.574Z,80
2018-08-06T03:30:11.097Z,84
2018-08-06T03:30:51.651Z,96
2018-08-06T03:31:32.237Z,100
2018-08-06T03:32:12.937Z,108
2018-08-06T03:32:53.478Z,112
2018-08-06T03:33:34.122Z,120
2018-08-06T03:34:14.681Z,128
2018-08-06T03:34:55.245Z,132
2018-08-06T03:35:35.810Z,140
2018-08-06T03:36:16.552Z,148
2018-08-06T03:36:57.490Z,156
2018-08-06T03:37:38.059Z,164
2018-08-06T03:38:18.628Z,172
2018-08-06T03:38:59.204Z,180
2018-08-06T03:39:39.764Z,188
2018-08-06T03:40:20.419Z,200
2018-08-06T03:41:00.910Z,204
2018-08-06T03:41:41.477Z,216
2018-08-06T03:42:22.043Z,224
2018-08-06T03:43:02.596Z,232
2018-08-06T03:43:43.178Z,248
2018-08-06T03:44:23.759Z,256
2018-08-06T03:45:04.363Z,264
2018-08-06T03:45:44.946Z,276
2018-08-06T03:46:25.525Z,288
2018-08-06T03:47:06.128Z,304
2018-08-06T03:47:46.707Z,312
2018-08-06T03:48:27.272Z,324
2018-08-06T03:49:07.835Z,336
2018-08-06T03:49:48.393Z,348
2018-08-06T03:50:28.960Z,360
2018-08-06T03:51:09.525Z,376
2018-08-06T03:51:50.131Z,384
2018-08-06T03:52:30.700Z,400
2018-08-06T03:53:11.256Z,412
2018-08-06T03:53:51.813Z,428
2018-08-06T03:54:32.385Z,436
2018-08-06T03:55:12.950Z,452
2018-08-06T03:55:53.537Z,464
2018-08-06T03:56:34.086Z,476
2018-08-06T03:57:14.648Z,492
2018-08-06T03:57:55.248Z,500
2018-08-06T03:58:35.823Z,516
2018-08-06T03:59:16.375Z,528
2018-08-06T03:59:56.933Z,540
2018-08-06T04:00:37.498Z,556
2018-08-06T04:01:18.095Z,568
2018-08-06T04:01:58.675Z,580
2018-08-06T04:02:39.219Z,592
2018-08-06T04:03:19.808Z,604
2018-08-06T04:04:00.372Z,616
2018-08-06T04:04:40.920Z,628
2018-08-06T04:05:21.482Z,644
2018-08-06T04:06:02.053Z,652
2018-08-06T04:06:42.651Z,664
2018-08-06T04:07:23.213Z,676
2018-08-06T04:08:03.830Z,692
2018-08-06T04:08:44.382Z,700
2018-08-06T04:09:24.981Z,716
2018-08-06T04:10:05.528Z,728
2018-08-06T04:10:46.108Z,740
2018-08-06T04:11:26.662Z,752
2018-08-06T04:12:07.243Z,764
2018-08-06T04:12:47.807Z,776
2018-08-06T04:13:28.377Z,788
2018-08-06T04:14:08.935Z,800
2018-08-06T04:14:49.503Z,812
2018-08-06T04:15:30.075Z,820
2018-08-06T04:16:10.764Z,832
2018-08-06T04:16:51.352Z,844
2018-08-06T04:17:31.909Z,856
2018-08-06T04:18:12.469Z,868
2018-08-06T04:18:53.039Z,884
2018-08-06T04:19:33.634Z,892
2018-08-06T04:20:14.151Z,908
2018-08-06T04:20:54.720Z,920
2018-08-06T04:21:35.282Z,928
2018-08-06T04:22:15.882Z,940
2018-08-06T04:22:56.448Z,952
2018-08-06T04:23:37.081Z,968
2018-08-06T04:24:17.855Z,976
2018-08-06T04:24:58.442Z,992
2018-08-06T04:25:39.007Z,1000
2018-08-06T04:26:19.598Z,1012
2018-08-06T04:27:00.160Z,1020
2018-08-06T04:27:40.730Z,1032
2018-08-06T04:28:21.279Z,1044
2018-08-06T04:29:01.855Z,1056
2018-08-06T04:29:42.421Z,1064
2018-08-06T04:30:22.971Z,1076
2018-08-06T04:31:03.587Z,1088
2018-08-06T04:31:44.287Z,1100
2018-08-06T04:32:24.703Z,1112
2018-08-06T04:33:05.292Z,1124
2018-08-06T04:33:45.842Z,1136
2018-08-06T04:34:26.606Z,1148
2018-08-06T04:35:07.171Z,1156
2018-08-06T04:35:47.731Z,1164
2018-08-06T04:36:28.332Z,1180
2018-08-06T04:37:08.885Z,1188
2018-08-06T04:37:49.444Z,1196
2018-08-06T04:38:30.012Z,1204
2018-08-06T04:39:10.566Z,1216
2018-08-06T04:39:51.133Z,1224
2018-08-06T04:40:31.701Z,1236
2018-08-06T04:41:12.272Z,1248
2018-08-06T04:41:52.811Z,1256
2018-08-06T04:42:33.372Z,1268
2018-08-06T04:43:13.966Z,1280
2018-08-06T04:43:54.707Z,1292
2018-08-06T04:44:35.285Z,1300
2018-08-06T04:45:15.897Z,1312
2018-08-06T04:45:56.483Z,1324
2018-08-06T04:46:37.060Z,1336
2018-08-06T04:47:17.576Z,1348
2018-08-06T04:47:58.139Z,1360
2018-08-06T04:48:38.706Z,1372
2018-08-06T04:49:19.287Z,1384
2018-08-06T04:49:59.860Z,1396
2018-08-06T04:50:40.431Z,1408
2018-08-06T04:51:20.994Z,1420
2018-08-06T04:52:01.644Z,1436
2018-08-06T04:52:42.369Z,1448
2018-08-06T04:53:22.938Z,1460
2018-08-06T04:54:03.502Z,1472
2018-08-06T04:54:44.066Z,1488
2018-08-06T04:55:24.674Z,1500
2018-08-06T04:56:05.243Z,1516
2018-08-06T04:56:45.812Z,1528
2018-08-06T04:57:26.383Z,1536
2018-08-06T04:58:06.945Z,1548
2018-08-06T04:58:47.515Z,1560
2018-08-06T04:59:28.085Z,1576
2018-08-06T05:00:08.641Z,1588
2018-08-06T05:00:49.233Z,1600
2018-08-06T05:01:29.812Z,1612
2018-08-06T05:02:10.456Z,1628
2018-08-06T05:02:50.995Z,1640
2018-08-06T05:03:31.568Z,1652
2018-08-06T05:04:12.138Z,1660
2018-08-06T05:04:52.699Z,1676
2018-08-06T05:05:33.273Z,1688
2018-08-06T05:06:13.858Z,1704
2018-08-06T05:06:54.450Z,1720
2018-08-06T05:07:35.022Z,1732
2018-08-06T05:08:15.592Z,1744
2018-08-06T05:08:56.205Z,1760
2018-08-06T05:09:36.766Z,1772
2018-08-06T05:10:17.334Z,1788
2018-08-06T05:10:57.908Z,1804
2018-08-06T05:11:38.476Z,1816
2018-08-06T05:12:19.032Z,1836
2018-08-06T05:12:59.664Z,1848
2018-08-06T05:13:40.281Z,1864
2018-08-06T05:14:20.799Z,1880
2018-08-06T05:15:01.367Z,1892
2018-08-06T05:15:41.935Z,1908
2018-08-06T05:16:22.503Z,1924
2018-08-06T05:17:03.075Z,1932
2018-08-06T05:17:43.642Z,1944
2018-08-06T05:18:24.210Z,1964
2018-08-06T05:19:04.770Z,1980
2018-08-06T05:19:45.393Z,1996
2018-08-06T05:20:25.888Z,2004
2018-08-06T05:21:06.464Z,2016
2018-08-06T05:21:47.036Z,2028
2018-08-06T05:22:27.620Z,2044
2018-08-06T05:23:08.267Z,2060
2018-08-06T05:23:48.830Z,2080
2018-08-06T05:24:29.416Z,2092
2018-08-06T05:25:09.983Z,2104
2018-08-06T05:25:50.536Z,2120
2018-08-06T05:26:31.135Z,2140
2018-08-06T05:27:11.689Z,2156
2018-08-06T05:27:52.256Z,2176
2018-08-06T05:28:32.821Z,2196
2018-08-06T05:29:13.378Z,2216
2018-08-06T05:29:53.936Z,2232
2018-08-06T05:30:34.494Z,2252
2018-08-06T05:31:15.068Z,2276
2018-08-06T05:31:55.630Z,2296
2018-08-06T05:32:36.198Z,2316
2018-08-06T05:33:16.764Z,2340
2018-08-06T05:33:57.411Z,2364
2018-08-06T05:34:37.984Z,2388
2018-08-06T05:35:18.536Z,2412
2018-08-06T05:35:59.076Z,2436
2018-08-06T05:36:39.631Z,2452
2018-08-06T05:37:20.380Z,2472
2018-08-06T05:38:00.948Z,2504
2018-08-06T05:38:41.513Z,2548
2018-08-06T05:39:22.146Z,2592
2018-08-06T05:40:02.729Z,2652
2018-08-06T05:40:43.330Z,2712
2018-08-06T05:41:24.281Z,2772
2018-08-06T05:42:04.849Z,2840
2018-08-06T05:42:45.537Z,2916
2018-08-06T05:43:26.088Z,2996
2018-08-06T05:44:06.669Z,3076
2018-08-06T05:44:47.260Z,3176
2018-08-06T05:45:27.846Z,3300
2018-08-06T05:46:08.499Z,17312
2018-08-06T05:46:49.070Z,46976
2018-08-06T05:47:29.628Z,75104
2018-08-06T05:48:10.223Z,89312
2018-08-06T05:48:50.862Z,88096
2018-08-06T05:49:31.552Z,89824
2018-08-06T05:50:12.226Z,92224
2018-08-06T05:50:52.805Z,92256
2018-08-06T05:51:33.426Z,91744
2018-08-06T05:52:13.996Z,91200
2018-08-06T05:52:54.597Z,92864
2018-08-06T05:53:35.172Z,93600
2018-08-06T05:54:15.740Z,95808
2018-08-06T05:54:56.298Z,96000
2018-08-06T05:55:36.877Z,96352
2018-08-06T05:56:17.441Z,93120
2018-08-06T05:56:58.005Z,87360
2018-08-06T05:57:38.550Z,83552
2018-08-06T05:58:19.112Z,81760
2018-08-06T05:58:59.669Z,84096
2018-08-06T05:59:40.240Z,87808
2018-08-06T06:00:20.860Z,89952
2018-08-06T06:01:01.394Z,90272
2018-08-06T06:01:41.950Z,91296
2018-08-06T06:02:22.549Z,93280
2018-08-06T06:03:03.215Z,91264
2018-08-06T06:03:43.827Z,88864
2018-08-06T06:04:24.401Z,89376
2018-08-06T06:05:04.973Z,91360
2018-08-06T06:05:45.542Z,92576
2018-08-06T06:06:26.119Z,91904
2018-08-06T06:07:06.699Z,92224
2018-08-06T06:07:47.262Z,92224
2018-08-06T06:08:27.838Z,93120
2018-08-06T06:09:08.416Z,92768
2018-08-06T06:09:48.993Z,91232
2018-08-06T06:10:29.553Z,91904
2018-08-06T06:11:10.191Z,93024
2018-08-06T06:11:50.753Z,94176
2018-08-06T06:12:31.311Z,95104
2018-08-06T06:13:12.194Z,97280
2018-08-06T06:13:52.787Z,94752
2018-08-06T06:14:33.384Z,92128
2018-08-06T06:15:13.937Z,89824
2018-08-06T06:15:54.510Z,90144
2018-08-06T06:16:35.089Z,89952
2018-08-06T06:17:15.682Z,88032
2018-08-06T06:17:56.256Z,85952
2018-08-06T06:18:36.841Z,86880
2018-08-06T06:19:17.569Z,88704
2018-08-06T06:19:57.995Z,89152
2018-08-06T06:20:38.571Z,89536
2018-08-06T06:21:19.143Z,90528
2018-08-06T06:21:59.716Z,90144
2018-08-06T06:22:40.309Z,90432
2018-08-06T06:23:21.092Z,89664
2018-08-06T06:24:01.659Z,88704
2018-08-06T06:24:42.238Z,86336
2018-08-06T06:25:22.815Z,86656
2018-08-06T06:26:03.395Z,88064
2018-08-06T06:26:43.988Z,88128
2018-08-06T06:27:24.574Z,86176
2018-08-06T06:28:05.151Z,86016
2018-08-06T06:28:45.768Z,86368
2018-08-06T06:29:26.353Z,90080
2018-08-06T06:30:06.930Z,90432
2018-08-06T06:30:47.534Z,88224
2018-08-06T06:31:28.129Z,88256
2018-08-06T06:32:08.702Z,91392
2018-08-06T06:32:49.300Z,93536
2018-08-06T06:33:30.031Z,91520
2018-08-06T06:34:10.590Z,87936
2018-08-06T06:34:51.207Z,86720
2018-08-06T06:35:31.723Z,89056
2018-08-06T06:36:12.305Z,91520
2018-08-06T06:36:52.876Z,91776
2018-08-06T06:37:33.450Z,92672
2018-08-06T06:38:14.012Z,93888
2018-08-06T06:38:54.582Z,92992
2018-08-06T06:39:35.152Z,92032
2018-08-06T06:40:15.749Z,91968
2018-08-06T06:40:56.313Z,93728
2018-08-06T06:41:36.935Z,94848
2018-08-06T06:42:17.552Z,96128
2018-08-06T06:42:58.161Z,95040
2018-08-06T06:43:38.693Z,93280
2018-08-06T06:44:19.269Z,91872
2018-08-06T06:44:59.845Z,88608
2018-08-06T06:45:40.473Z,93472
2018-08-06T06:46:21.067Z,94464
2018-08-06T06:47:01.653Z,93920
2018-08-06T06:47:42.234Z,93312
2018-08-06T06:48:22.842Z,92352
2018-08-06T06:49:03.555Z,93888
2018-08-06T06:49:44.027Z,97536
2018-08-06T06:50:24.627Z,99040
2018-08-06T06:51:05.202Z,97440
2018-08-06T06:51:45.774Z,94976
2018-08-06T06:52:26.410Z,93280
2018-08-06T06:53:07.072Z,92384
2018-08-06T06:53:47.653Z,93472
2018-08-06T06:54:28.286Z,95040
2018-08-06T06:55:08.839Z,96480
2018-08-06T06:55:49.474Z,96992
2018-08-06T06:56:31.109Z,95872
2018-08-06T06:57:11.717Z,97600
2018-08-06T06:57:52.271Z,98496
2018-08-06T06:58:32.805Z,99488
2018-08-06T06:59:13.393Z,99168
2018-08-06T06:59:53.960Z,28160
2018-08-06T07:00:34.588Z,94848
2018-08-06T07:01:15.165Z,96832
2018-08-06T07:01:55.752Z,96128
2018-08-06T07:02:36.854Z,94720
2018-08-06T07:03:17.496Z,48704
2018-08-06T07:03:58.171Z,96992
2018-08-06T07:04:38.814Z,97568
2018-08-06T07:05:19.442Z,97408
2018-08-06T07:06:00.004Z,97728
2018-08-06T07:06:40.586Z,98144
2018-08-06T07:07:21.164Z,97472
2018-08-06T07:08:01.720Z,99552
2018-08-06T07:08:42.301Z,101248
2018-08-06T07:09:22.885Z,99552
2018-08-06T07:10:03.651Z,95744
2018-08-06T07:10:44.338Z,96448
2018-08-06T07:11:25.436Z,96000
2018-08-06T07:12:05.692Z,95968
2018-08-06T07:12:46.267Z,97888
2018-08-06T07:13:26.836Z,99744
2018-08-06T07:14:08.316Z,98656
2018-08-06T07:14:48.323Z,95744
2018-08-06T07:15:29.071Z,89536
2018-08-06T07:16:09.620Z,95584
2018-08-06T07:16:50.538Z,96288
2018-08-06T07:17:31.151Z,97920
2018-08-06T07:18:11.742Z,73760
2018-08-06T07:18:52.307Z,69792
2018-08-06T07:19:33.696Z,100000
2018-08-06T07:20:14.149Z,97376
2018-08-06T07:20:54.736Z,84864
2018-08-06T07:21:35.957Z,92960
2018-08-06T07:22:16.515Z,97280
2018-08-06T07:22:57.147Z,94752
2018-08-06T07:23:37.712Z,95200
2018-08-06T07:24:18.305Z,93120
2018-08-06T07:24:58.937Z,94496
2018-08-06T07:25:39.506Z,96416
2018-08-06T07:26:20.126Z,88192
2018-08-06T07:27:01.068Z,53440
2018-08-06T07:27:41.682Z,43744
2018-08-06T07:28:22.264Z,100960
2018-08-06T07:29:02.840Z,69984
2018-08-06T07:29:43.417Z,72576
2018-08-06T07:30:23.990Z,99456
2018-08-06T07:31:04.564Z,97056
2018-08-06T07:31:45.120Z,98464
2018-08-06T07:32:25.698Z,101888
2018-08-06T07:33:06.265Z,101248
2018-08-06T07:33:46.907Z,99424
2018-08-06T07:34:27.419Z,102112
2018-08-06T07:35:08.010Z,101152
2018-08-06T07:35:48.595Z,97824
2018-08-06T07:36:29.174Z,97728
2018-08-06T07:37:09.995Z,97792
2018-08-06T07:37:50.423Z,101600
2018-08-06T07:38:30.999Z,99776
2018-08-06T07:39:11.586Z,98624
2018-08-06T07:39:52.164Z,98112
2018-08-06T07:40:32.742Z,96864
2018-08-06T07:41:13.310Z,96032
2018-08-06T07:41:53.892Z,95296
2018-08-06T07:42:34.449Z,97152
2018-08-06T07:43:15.145Z,99552
2018-08-06T07:43:55.614Z,101248
2018-08-06T07:44:36.192Z,98912
2018-08-06T07:45:16.772Z,97920
2018-08-06T07:45:57.347Z,98592
2018-08-06T07:46:37.922Z,96672
2018-08-06T07:47:18.497Z,95680
2018-08-06T07:47:59.133Z,95712
2018-08-06T07:48:39.666Z,97792
2018-08-06T07:49:20.270Z,98208
2018-08-06T07:50:00.801Z,95968
2018-08-06T07:50:41.384Z,94752
2018-08-06T07:51:21.953Z,95168
2018-08-06T07:52:02.523Z,97088
2018-08-06T07:52:43.098Z,96160
2018-08-06T07:53:23.689Z,95296
2018-08-06T07:54:04.251Z,94592
2018-08-06T07:54:44.816Z,95168
2018-08-06T07:55:25.383Z,94752
2018-08-06T07:56:05.961Z,92128
2018-08-06T07:56:46.615Z,91712
2018-08-06T07:57:27.200Z,93856
2018-08-06T07:58:07.760Z,96000
2018-08-06T07:58:48.405Z,93664
2018-08-06T07:59:28.978Z,92352
2018-08-06T08:00:09.543Z,93216
2018-08-06T08:00:50.109Z,91328
2018-08-06T08:01:30.688Z,90880
2018-08-06T08:02:11.277Z,92320
2018-08-06T08:02:51.853Z,93024
2018-08-06T08:03:32.430Z,91360
2018-08-06T08:04:13.011Z,89504
2018-08-06T08:04:53.789Z,86912
2018-08-06T08:05:34.390Z,85184
2018-08-06T08:06:14.977Z,85088
2018-08-06T08:06:55.756Z,85184
2018-08-06T08:07:36.324Z,83296
2018-08-06T08:08:16.909Z,78720
2018-08-06T08:08:57.513Z,72672
2018-08-06T08:09:38.099Z,51104
2018-08-06T08:10:18.677Z,28032
2018-08-06T08:10:59.295Z,20000
2018-08-06T08:11:39.832Z,21024
2018-08-06T08:12:20.397Z,19264
2018-08-06T08:13:00.978Z,18272
2018-08-06T08:13:41.578Z,17984
2018-08-06T08:14:22.174Z,17408
2018-08-06T08:15:02.752Z,16672
2018-08-06T08:15:43.320Z,16192
2018-08-06T08:16:23.909Z,15840
2018-08-06T08:17:04.492Z,15488
2018-08-06T08:17:45.062Z,14892
2018-08-06T08:18:25.632Z,14488
2018-08-06T08:19:06.229Z,14236
2018-08-06T08:19:46.768Z,13604
2018-08-06T08:20:27.329Z,13672
2018-08-06T08:21:07.910Z,13308
2018-08-06T08:21:48.509Z,12904
2018-08-06T08:22:29.042Z,12456
2018-08-06T08:23:09.617Z,12128
2018-08-06T08:23:50.380Z,11816
2018-08-06T08:24:31.079Z,11424
2018-08-06T08:25:11.662Z,11132
2018-08-06T08:25:52.234Z,10884
2018-08-06T08:26:32.802Z,10620
2018-08-06T08:27:13.411Z,10292
2018-08-06T08:27:53.968Z,10088
2018-08-06T08:28:34.543Z,10156
2018-08-06T08:29:15.128Z,9960
2018-08-06T08:29:55.696Z,9360
2018-08-06T08:30:36.304Z,9088
2018-08-06T08:31:16.893Z,8856
2018-08-06T08:31:57.447Z,8688
2018-08-06T08:32:38.009Z,8520
2018-08-06T08:33:18.574Z,8320
2018-08-06T08:33:59.336Z,8152
2018-08-06T08:34:39.856Z,7968
2018-08-06T08:35:20.431Z,7844
2018-08-06T08:36:01.777Z,7684
2018-08-06T08:36:42.347Z,7556
2018-08-06T08:37:22.950Z,7436
2018-08-06T08:38:03.524Z,7312
2018-08-06T08:38:44.503Z,7208
2018-08-06T08:39:25.105Z,7084
2018-08-06T08:40:05.913Z,6964
2018-08-06T08:40:46.930Z,6860
2018-08-06T08:41:27.590Z,6736
2018-08-06T08:42:08.499Z,6640
2018-08-06T08:42:49.128Z,6552
2018-08-06T08:43:29.943Z,6460
2018-08-06T08:44:10.862Z,6372
2018-08-06T08:44:52.634Z,6308
2018-08-06T08:45:33.287Z,6240
2018-08-06T08:46:14.110Z,6176
2018-08-06T08:46:55.038Z,6112
2018-08-06T08:47:35.823Z,6028
2018-08-06T08:48:16.622Z,5952
2018-08-06T08:48:57.441Z,5860
2018-08-06T08:49:38.322Z,5780
2018-08-06T08:50:19.308Z,5708
2018-08-06T08:50:59.892Z,5652
2018-08-06T08:51:40.529Z,5568
2018-08-06T08:52:21.545Z,5512
2018-08-06T08:53:02.473Z,5432
2018-08-06T08:53:43.093Z,5380
2018-08-06T08:54:23.815Z,5328
2018-08-06T08:55:04.478Z,5216
2018-08-06T08:55:45.184Z,5148
2018-08-06T08:56:26.170Z,5072
2018-08-06T08:57:06.935Z,5040
2018-08-06T08:57:48.936Z,4916
2018-08-06T08:58:29.798Z,4868
2018-08-06T08:59:10.431Z,4808
2018-08-06T08:59:51.821Z,4716
2018-08-06T09:00:33.084Z,4672
2018-08-06T09:01:14.434Z,4720
2018-08-06T09:01:56.391Z,4616
2018-08-06T09:02:38.676Z,4528
2018-08-06T09:03:20.201Z,4464
2018-08-06T09:04:01.075Z,4456
2018-08-06T09:04:43.024Z,4448
2018-08-06T09:05:23.828Z,4396
2018-08-06T09:06:04.996Z,4320
2018-08-06T09:06:46.054Z,4240
2018-08-06T09:07:26.912Z,4288
2018-08-06T09:08:07.496Z,4244
2018-08-06T09:08:48.208Z,4208
2018-08-06T09:09:29.047Z,4180
2018-08-06T09:10:09.767Z,4144
2018-08-06T09:10:50.753Z,4116
2018-08-06T09:11:31.696Z,4064
2018-08-06T09:12:12.485Z,4028
2018-08-06T09:12:53.454Z,3992
2018-08-06T09:13:34.325Z,3956
2018-08-06T09:14:15.042Z,3928
2018-08-06T09:14:55.850Z,3892
2018-08-06T09:15:36.732Z,3860
2018-08-06T09:16:17.447Z,3840
2018-08-06T09:16:58.182Z,3804
2018-08-06T09:17:38.824Z,3784